Regina, Canada
Current Conditions -  °F | °C
As of 8:00 PM on Friday 28 Nov 2014 (Local Time) from CYQR Reporting Station
Light Snow Light Snow  
Wind Chill:   Ceiling: 1600
Heat Index: 12°   Visibility: 12mi
Dew Point:   Wind: 7mph
Humidity: 85%   Direction: 150°SSE
Pressure: 29.5"   Gusts: NA
Location:  50.45°N, 104.6°W
Report Text: CYQR 290200Z 15006KT 12SM -SN OVC016 M11/M13 A2950 RMK SC8 SLP033
Loading
Personal Weather Stations






























Interactive Weather Map New forecast layout! Learn more

10-Day Weather Forecast

Advertisements
Track Severe Weather on mobile